Time;durP1;ratioP1;P1;durP2;ratioP2;P2;SDS_P1;SDS_P2;PMS_P1;PMS_P2;Temp;Humidity;BMP_temperature;BMP_pressure;BME280_temperature;BME280_humidity;BME280_pressure;Samples;Min_cycle;Max_cycle;Signal;HPM_P1;HPM_P2
2023/09/02 00:02:20;;;;;;;1.50;1.20;;;;;;;15.78;90.44;95777.28;4981138;28;20188;-83
2023/09/02 00:04:45;;;;;;;1.60;1.30;;;;;;;15.78;90.46;95793.81;4983879;28;20188;-82
2023/09/02 00:07:10;;;;;;;1.15;1.08;;;;;;;15.71;90.96;95790.25;4992437;28;20641;-84
2023/09/02 00:09:36;;;;;;;3.40;1.20;;;;;;;15.65;90.79;95788.34;4970166;28;20771;-83
2023/09/02 00:12:01;;;;;;;1.40;1.10;;;;;;;15.63;90.88;95790.28;4965925;28;20198;-82
2023/09/02 00:14:26;;;;;;;1.63;1.20;;;;;;;15.61;90.88;95791.47;4986121;28;20208;-82
2023/09/02 00:16:52;;;;;;;1.63;1.02;;;;;;;15.55;91.33;95785.91;4992159;28;20196;-83
2023/09/02 00:19:17;;;;;;;1.60;1.40;;;;;;;15.49;91.99;95783.16;4988493;28;20239;-81
2023/09/02 00:21:42;;;;;;;1.00;1.00;;;;;;;15.48;92.06;95792.81;4981512;28;20551;-81
2023/09/02 00:24:08;;;;;;;5.72;1.63;;;;;;;15.43;92.08;95800.34;4980495;28;20185;-82
2023/09/02 00:26:33;;;;;;;2.13;1.60;;;;;;;15.40;91.99;95803.31;4984905;28;20561;-83
2023/09/02 00:29:00;;;;;;;1.98;1.20;;;;;;;15.39;91.31;95793.03;4992461;28;20208;-83
2023/09/02 00:31:26;;;;;;;2.25;1.10;;;;;;;15.38;92.75;95797.44;4977102;28;20649;-81
2023/09/02 00:33:51;;;;;;;3.80;1.17;;;;;;;15.42;92.97;95805.75;4965146;28;20268;-81
2023/09/02 00:36:17;;;;;;;1.67;1.40;;;;;;;15.38;92.46;95794.84;4980266;28;20288;-82
2023/09/02 00:38:42;;;;;;;2.13;1.45;;;;;;;15.37;92.47;95795.81;4972805;28;20220;-83
2023/09/02 00:41:12;;;;;;;1.50;1.40;;;;;;;15.38;92.73;95801.88;4984729;28;20207;-82
2023/09/02 00:43:38;;;;;;;3.15;1.50;;;;;;;15.37;92.34;95800.22;4988575;28;20631;-81
2023/09/02 00:46:04;;;;;;;3.03;1.50;;;;;;;15.42;92.41;95803.16;4988591;28;20270;-82
2023/09/02 00:48:30;;;;;;;1.58;1.30;;;;;;;15.48;92.63;95797.22;4971837;28;20206;-81
2023/09/02 00:50:56;;;;;;;2.55;1.10;;;;;;;15.55;93.16;95791.16;4971746;28;20180;-83
2023/09/02 00:53:24;;;;;;;1.92;1.45;;;;;;;15.62;92.86;95790.47;4978715;28;20187;-83
2023/09/02 00:55:49;;;;;;;1.50;1.35;;;;;;;15.68;93.56;95798.44;4976584;28;20211;-83
2023/09/02 00:58:15;;;;;;;1.63;1.40;;;;;;;15.69;93.37;95786.19;4974817;28;20191;-84
2023/09/02 01:00:40;;;;;;;1.63;1.40;;;;;;;15.70;92.96;95790.41;4964205;28;20657;-81
2023/09/02 01:03:05;;;;;;;1.55;1.30;;;;;;;15.69;93.34;95789.59;4972899;28;20195;-83
2023/09/02 01:05:32;;;;;;;1.73;1.30;;;;;;;15.69;92.93;95794.03;4984705;28;20183;-82
2023/09/02 01:07:58;;;;;;;1.83;1.35;;;;;;;15.69;93.30;95797.47;4975402;28;20246;-81
2023/09/02 01:10:24;;;;;;;1.40;1.27;;;;;;;15.68;93.18;95784.53;4975169;28;20212;-82
2023/09/02 01:12:49;;;;;;;7.00;2.65;;;;;;;15.68;93.48;95792.41;4969252;28;20572;-82
2023/09/02 01:15:15;;;;;;;2.25;1.42;;;;;;;15.59;92.63;95788.97;4984827;28;20207;-83
2023/09/02 01:17:40;;;;;;;1.75;1.20;;;;;;;15.59;93.27;95795.03;4965682;28;20188;-81
2023/09/02 01:20:07;;;;;;;2.70;1.50;;;;;;;15.59;93.29;95791.59;4977132;28;20258;-81
2023/09/02 01:22:55;;;;;;;2.50;1.30;;;;;;;15.64;93.72;95797.19;4987019;28;20223;-81
2023/09/02 01:25:34;;;;;;;2.92;1.20;;;;;;;15.67;94.07;95793.38;4977245;28;20177;-81
2023/09/02 01:28:05;;;;;;;1.55;1.15;;;;;;;15.68;93.72;95793.22;4985475;28;20212;-83
2023/09/02 01:30:33;;;;;;;1.52;1.42;;;;;;;15.65;94.03;95798.81;4988398;28;20216;-83
2023/09/02 01:33:00;;;;;;;1.75;1.30;;;;;;;15.64;93.80;95797.19;4975995;28;20308;-83
2023/09/02 01:35:33;;;;;;;3.10;1.17;;;;;;;15.62;93.91;95799.13;4987123;28;20196;-82
2023/09/02 01:37:58;;;;;;;1.20;1.10;;;;;;;15.55;93.78;95798.19;4980857;28;20230;-83
2023/09/02 01:40:25;;;;;;;1.83;1.20;;;;;;;15.53;93.72;95800.13;4984960;28;20288;-85
2023/09/02 01:42:52;;;;;;;1.45;1.30;;;;;;;15.47;93.88;95804.28;4968441;28;20191;-82
2023/09/02 01:45:18;;;;;;;2.40;1.30;;;;;;;15.43;94.73;95805.59;4982114;28;20184;-82
2023/09/02 01:47:44;;;;;;;2.30;1.20;;;;;;;15.42;94.64;95809.19;4974090;28;20251;-82
2023/09/02 01:50:11;;;;;;;2.72;1.50;;;;;;;15.41;94.54;95810.19;4980171;28;20234;-85
2023/09/02 01:52:37;;;;;;;1.70;1.35;;;;;;;15.38;94.27;95810.53;4982114;28;20191;-82
2023/09/02 01:55:04;;;;;;;1.20;1.10;;;;;;;15.40;94.04;95803.31;4987673;28;20623;-83
2023/09/02 01:57:29;;;;;;;2.20;1.05;;;;;;;15.40;94.17;95805.94;4979476;28;20542;-82
2023/09/02 01:59:54;;;;;;;1.58;1.48;;;;;;;15.42;93.98;95809.19;4976825;28;20212;-82
2023/09/02 02:02:20;;;;;;;1.65;1.48;;;;;;;15.45;94.43;95810.63;4980493;28;20211;-82
2023/09/02 02:04:51;;;;;;;1.83;1.15;;;;;;;15.48;94.44;95805.91;4984461;28;20192;-82
2023/09/02 02:07:17;;;;;;;1.65;1.40;;;;;;;15.54;94.27;95807.00;4975637;28;20538;-83
2023/09/02 02:09:46;;;;;;;1.92;1.30;;;;;;;15.57;94.34;95812.72;4982377;28;20259;-82
2023/09/02 02:12:12;;;;;;;1.60;1.35;;;;;;;15.55;95.93;95814.69;4991378;28;20230;-83
2023/09/02 02:14:37;;;;;;;1.83;1.20;;;;;;;15.63;96.73;95805.19;4974612;28;20209;-82
2023/09/02 02:17:04;;;;;;;2.03;1.30;;;;;;;15.73;95.11;95805.81;4973544;28;20192;-82
2023/09/02 02:19:30;;;;;;;1.20;1.10;;;;;;;15.72;95.02;95804.97;4980295;28;20633;-82
2023/09/02 02:21:55;;;;;;;1.88;1.30;;;;;;;15.68;95.63;95802.88;4973127;28;20247;-82
2023/09/02 02:24:20;;;;;;;1.83;1.27;;;;;;;15.59;95.47;95800.28;4987791;28;20210;-83
2023/09/02 02:26:46;;;;;;;1.70;1.10;;;;;;;15.61;95.12;95799.31;4997274;28;20320;-82
2023/09/02 02:29:11;;;;;;;1.58;1.15;;;;;;;15.54;95.41;95807.81;4980807;28;20204;-82
2023/09/02 02:31:36;;;;;;;1.55;1.30;;;;;;;15.59;96.06;95805.50;4980197;28;20242;-83
2023/09/02 02:34:02;;;;;;;4.00;1.30;;;;;;;15.56;96.35;95818.94;4973836;28;20185;-83
2023/09/02 02:36:28;;;;;;;2.03;1.20;;;;;;;15.56;96.10;95808.47;4983595;28;20241;-82
2023/09/02 02:38:53;;;;;;;1.48;1.17;;;;;;;15.49;96.22;95815.38;4983393;28;20220;-82
2023/09/02 02:41:18;;;;;;;2.58;1.17;;;;;;;15.46;96.18;95818.34;4972657;28;20188;-82
2023/09/02 02:43:44;;;;;;;1.50;1.30;;;;;;;15.43;96.00;95820.47;4979177;28;20187;-83
2023/09/02 02:46:09;;;;;;;1.20;1.10;;;;;;;15.41;96.32;95818.03;4981466;28;20195;-82
2023/09/02 02:48:34;;;;;;;1.38;1.27;;;;;;;15.44;95.60;95812.44;4983699;28;20200;-82
2023/09/02 02:51:00;;;;;;;2.35;1.33;;;;;;;15.40;95.81;95821.63;4986366;28;20655;-82
2023/09/02 02:53:25;;;;;;;1.35;1.25;;;;;;;15.24;95.88;95809.44;4961224;28;20195;-82
2023/09/02 02:55:50;;;;;;;3.22;1.25;;;;;;;15.28;95.79;95809.91;4974345;28;20212;-83
2023/09/02 02:58:16;;;;;;;1.50;1.20;;;;;;;15.27;95.56;95808.28;4970587;28;20700;-83
2023/09/02 03:00:43;;;;;;;2.30;1.00;;;;;;;15.32;95.83;95813.00;4964815;28;20183;-82
2023/09/02 03:03:09;;;;;;;1.88;1.45;;;;;;;15.35;95.58;95810.84;4971787;28;20192;-82
2023/09/02 03:05:38;;;;;;;2.05;1.30;;;;;;;15.35;95.37;95810.84;4976242;28;20191;-84
2023/09/02 03:08:07;;;;;;;2.17;1.10;;;;;;;15.40;95.64;95816.41;4969764;28;20278;-84
2023/09/02 03:10:35;;;;;;;2.20;1.40;;;;;;;15.40;96.61;95816.41;4970192;28;20191;-83
2023/09/02 03:13:01;;;;;;;2.78;1.40;;;;;;;15.46;96.11;95813.13;4979355;28;20262;-82
2023/09/02 03:15:26;;;;;;;2.10;1.60;;;;;;;15.43;97.45;95821.28;4981880;28;20207;-83
2023/09/02 03:17:52;;;;;;;2.45;1.60;;;;;;;15.57;96.77;95811.91;4973217;28;20195;-82
2023/09/02 03:20:17;;;;;;;1.65;1.45;;;;;;;15.62;96.92;95817.47;4975179;28;20220;-83
2023/09/02 03:22:42;;;;;;;1.88;1.42;;;;;;;15.65;96.40;95822.38;4960179;28;20191;-82
2023/09/02 03:25:09;;;;;;;2.53;1.33;;;;;;;15.64;96.82;95815.50;4979346;28;20188;-83
2023/09/02 03:27:38;;;;;;;1.67;1.42;;;;;;;15.69;96.97;95818.41;4969655;28;20267;-81
2023/09/02 03:30:05;;;;;;;2.00;1.65;;;;;;;15.76;97.06;95821.16;4972633;28;20203;-82
2023/09/02 03:32:31;;;;;;;1.40;1.20;;;;;;;15.84;96.31;95818.50;4985120;28;20191;-82
2023/09/02 03:34:56;;;;;;;3.10;1.35;;;;;;;15.88;96.14;95818.94;4981578;28;20216;-82
2023/09/02 03:37:21;;;;;;;1.63;1.52;;;;;;;15.91;95.95;95822.03;4986071;28;20183;-82
2023/09/02 03:39:47;;;;;;;3.90;1.42;;;;;;;15.91;95.53;95819.44;4979603;28;20208;-83
2023/09/02 03:42:12;;;;;;;1.77;1.30;;;;;;;15.98;95.38;95820.34;4964836;28;20193;-81
2023/09/02 03:44:37;;;;;;;1.67;1.50;;;;;;;15.97;95.02;95816.09;4986106;28;20196;-82
2023/09/02 03:47:03;;;;;;;2.13;1.20;;;;;;;15.99;94.34;95821.16;4980700;28;20196;-81
2023/09/02 03:49:28;;;;;;;1.70;1.50;;;;;;;15.89;95.44;95821.38;4970082;28;20214;-82
2023/09/02 03:51:53;;;;;;;2.05;1.60;;;;;;;16.02;95.14;95813.78;4993316;28;20550;-82
2023/09/02 03:54:20;;;;;;;4.50;1.85;;;;;;;16.10;93.66;95813.72;4983788;28;20602;-81
2023/09/02 03:56:45;;;;;;;2.60;1.73;;;;;;;16.13;93.21;95813.38;4970090;28;20219;-83
2023/09/02 03:59:10;;;;;;;1.73;1.42;;;;;;;16.10;93.22;95812.91;4990638;28;20201;-82
2023/09/02 04:01:36;;;;;;;1.77;1.63;;;;;;;16.08;94.14;95826.19;4982799;28;20204;-82
2023/09/02 04:04:01;;;;;;;1.90;1.70;;;;;;;16.14;93.09;95825.47;4988951;28;20640;-83
2023/09/02 04:06:26;;;;;;;2.05;1.60;;;;;;;16.16;93.21;95825.28;4981895;28;20190;-82
2023/09/02 04:08:52;;;;;;;1.50;1.40;;;;;;;16.11;93.50;95825.81;4982608;28;20231;-84
2023/09/02 04:11:18;;;;;;;2.13;1.80;;;;;;;16.06;93.60;95824.72;4987467;28;20184;-83
2023/09/02 04:13:43;;;;;;;2.55;1.85;;;;;;;16.11;93.55;95827.63;4980600;28;20793;-82
2023/09/02 04:16:10;;;;;;;2.78;2.42;;;;;;;16.13;93.44;95829.09;4966303;28;20685;-83
2023/09/02 04:18:36;;;;;;;3.35;1.83;;;;;;;16.12;93.68;95824.84;4990657;28;20228;-83
2023/09/02 04:21:03;;;;;;;2.80;2.00;;;;;;;16.12;93.89;95827.44;4980604;28;20184;-82
2023/09/02 04:23:29;;;;;;;3.88;1.90;;;;;;;16.17;93.43;95829.56;4987467;28;20182;-83
2023/09/02 04:25:57;;;;;;;1.92;1.67;;;;;;;16.22;93.40;95832.47;4965173;28;20275;-83
2023/09/02 04:28:22;;;;;;;2.75;2.00;;;;;;;16.23;92.96;95831.47;4983162;28;20262;-82
2023/09/02 04:30:48;;;;;;;5.47;2.15;;;;;;;16.21;93.31;95827.41;4982012;28;20630;-83
2023/09/02 04:33:15;;;;;;;4.53;1.98;;;;;;;16.22;93.66;95834.25;4986686;28;20270;-82
2023/09/02 04:35:42;;;;;;;3.67;2.20;;;;;;;16.23;92.93;95823.59;4974084;28;20287;-82
2023/09/02 04:38:08;;;;;;;2.40;1.70;;;;;;;16.23;92.91;95825.41;4978239;28;20192;-82
2023/09/02 04:40:37;;;;;;;2.35;1.83;;;;;;;16.26;92.90;95822.47;4990015;28;20195;-84
2023/09/02 04:43:06;;;;;;;5.85;2.20;;;;;;;16.27;92.51;95830.13;4975070;28;20271;-83
2023/09/02 04:45:35;;;;;;;3.00;1.77;;;;;;;16.32;92.67;95829.59;4969536;28;20184;-84
2023/09/02 04:48:02;;;;;;;2.67;1.60;;;;;;;16.24;93.31;95829.66;4977015;28;20185;-83
2023/09/02 04:50:28;;;;;;;1.98;1.60;;;;;;;16.22;92.89;95842.94;4982245;28;20701;-82
2023/09/02 04:52:53;;;;;;;3.35;1.98;;;;;;;16.41;92.07;95841.63;4969177;28;20196;-82
2023/09/02 04:55:21;;;;;;;2.67;1.92;;;;;;;16.46;91.92;95844.56;4984740;28;20624;-82
2023/09/02 04:57:46;;;;;;;3.72;2.20;;;;;;;16.42;91.79;95838.84;4967299;28;20200;-82
2023/09/02 05:00:13;;;;;;;3.17;2.20;;;;;;;16.43;91.61;95837.88;4976564;28;20259;-81
2023/09/02 05:02:38;;;;;;;2.75;2.00;;;;;;;16.55;91.60;95840.06;4979965;28;20193;-82
2023/09/02 05:05:04;;;;;;;2.78;2.03;;;;;;;16.62;91.10;95847.03;4975919;28;20184;-82
2023/09/02 05:07:29;;;;;;;2.30;2.00;;;;;;;16.67;90.69;95846.50;4964740;28;20196;-82
2023/09/02 05:09:54;;;;;;;2.58;1.70;;;;;;;16.82;90.22;95850.00;4975828;28;20212;-83
2023/09/02 05:12:20;;;;;;;2.88;2.38;;;;;;;16.88;90.02;95840.63;4982309;28;20200;-82
2023/09/02 05:14:45;;;;;;;3.28;2.10;;;;;;;16.98;89.31;95844.59;4982465;28;20217;-83
2023/09/02 05:17:11;;;;;;;2.15;1.80;;;;;;;17.19;88.49;95845.69;4976972;28;20192;-82
2023/09/02 05:19:36;;;;;;;2.75;2.10;;;;;;;17.25;87.43;95850.22;4986147;28;20226;-81
2023/09/02 05:22:01;;;;;;;2.60;2.35;;;;;;;17.28;87.42;95849.84;4981658;28;20196;-82
2023/09/02 05:24:26;;;;;;;2.65;2.10;;;;;;;17.19;88.31;95848.31;4986800;28;20230;-82
2023/09/02 05:26:52;;;;;;;3.17;1.80;;;;;;;17.33;87.16;95857.19;4974805;28;20199;-82
2023/09/02 05:29:17;;;;;;;3.63;2.08;;;;;;;17.41;87.02;95862.34;4981903;28;20251;-82
2023/09/02 05:31:42;;;;;;;2.65;2.10;;;;;;;17.32;87.63;95860.81;4983045;28;20188;-81
2023/09/02 05:34:08;;;;;;;4.20;2.17;;;;;;;17.40;87.20;95858.06;4987758;28;20311;-81
2023/09/02 05:36:33;;;;;;;2.55;2.00;;;;;;;17.46;86.52;95863.41;4976624;28;20672;-83
2023/09/02 05:38:58;;;;;;;3.25;2.20;;;;;;;17.60;86.08;95860.97;4983977;28;20220;-82
2023/09/02 05:41:24;;;;;;;2.65;1.80;;;;;;;17.55;86.30;95858.88;4965478;28;20184;-83
2023/09/02 05:43:50;;;;;;;2.58;2.05;;;;;;;17.65;85.89;95863.84;4982422;28;20705;-85
2023/09/02 05:46:15;;;;;;;2.30;1.92;;;;;;;17.65;85.14;95861.22;4978221;28;20975;-82
2023/09/02 05:48:40;;;;;;;2.35;2.10;;;;;;;17.74;85.23;95865.41;4985324;28;20224;-83
2023/09/02 05:51:05;;;;;;;3.47;2.17;;;;;;;17.81;84.66;95871.53;4964073;28;20243;-85
2023/09/02 05:53:31;;;;;;;3.33;2.40;;;;;;;17.77;85.21;95880.81;4987458;28;20241;-83
2023/09/02 05:55:56;;;;;;;3.50;2.42;;;;;;;18.03;82.94;95875.03;4965746;28;20211;-83
2023/09/02 05:58:23;;;;;;;2.03;1.80;;;;;;;18.12;82.48;95873.91;4975445;28;20628;-82
2023/09/02 06:00:48;;;;;;;3.20;2.15;;;;;;;18.24;81.87;95882.13;4975438;28;20194;-84
2023/09/02 06:03:13;;;;;;;2.47;2.00;;;;;;;18.32;81.43;95884.63;4985904;28;20188;-84
2023/09/02 06:05:39;;;;;;;2.58;1.70;;;;;;;18.42;80.73;95895.66;4964562;28;20192;-82
2023/09/02 06:08:04;;;;;;;3.38;2.38;;;;;;;18.41;80.70;95888.75;4965982;28;20204;-83
2023/09/02 06:10:29;;;;;;;2.22;2.00;;;;;;;18.60;80.18;95892.56;4991461;28;20200;-84
2023/09/02 06:12:55;;;;;;;3.08;2.20;;;;;;;18.80;78.99;95898.84;4988579;28;20219;-82
2023/09/02 06:15:20;;;;;;;2.90;2.20;;;;;;;18.81;78.95;95892.56;4965523;28;20212;-83
2023/09/02 06:17:45;;;;;;;3.05;1.77;;;;;;;18.91;78.54;95885.19;4987681;28;20188;-82
2023/09/02 06:20:15;;;;;;;2.00;1.80;;;;;;;19.03;78.53;95888.09;4982643;28;20291;-83
2023/09/02 06:22:40;;;;;;;3.05;2.20;;;;;;;19.12;76.80;95878.25;4983162;28;20188;-82
2023/09/02 06:25:06;;;;;;;4.03;2.50;;;;;;;19.23;76.22;95883.78;4968897;28;20269;-83
2023/09/02 06:27:31;;;;;;;2.85;2.08;;;;;;;19.28;76.77;95880.56;4979756;28;20192;-83
2023/09/02 06:29:56;;;;;;;2.05;1.73;;;;;;;19.31;76.83;95880.19;4982011;28;20209;-83
2023/09/02 06:32:22;;;;;;;3.03;1.70;;;;;;;19.16;76.77;95882.09;4967275;28;20242;-83
2023/09/02 06:34:47;;;;;;;4.65;2.28;;;;;;;19.22;77.10;95883.97;4963675;28;20307;-83
2023/09/02 06:37:12;;;;;;;3.90;2.03;;;;;;;19.38;76.75;95882.84;4980280;28;20248;-83
2023/09/02 06:39:38;;;;;;;3.10;2.10;;;;;;;19.43;76.48;95889.16;4986205;28;20278;-82
2023/09/02 06:42:03;;;;;;;2.17;1.98;;;;;;;19.29;76.94;95892.72;4980098;28;20188;-83
2023/09/02 06:44:28;;;;;;;3.13;2.00;;;;;;;19.32;76.33;95892.34;4966000;28;20754;-84
2023/09/02 06:46:54;;;;;;;3.60;1.92;;;;;;;19.24;76.82;95901.19;4976492;28;20227;-82
2023/09/02 06:49:19;;;;;;;2.42;1.85;;;;;;;19.29;77.08;95899.81;4980566;28;20216;-83
2023/09/02 06:51:44;;;;;;;3.20;2.05;;;;;;;19.34;76.93;95900.84;4978932;28;20568;-83
2023/09/02 06:54:10;;;;;;;2.75;2.00;;;;;;;19.43;76.83;95904.13;4960666;28;20202;-82
2023/09/02 06:56:35;;;;;;;2.72;1.90;;;;;;;19.57;76.69;95912.97;4984796;28;20183;-83
2023/09/02 06:59:01;;;;;;;3.20;2.00;;;;;;;19.57;75.83;95910.34;4970286;28;20265;-84
2023/09/02 07:01:26;;;;;;;2.67;1.90;;;;;;;19.73;75.19;95910.84;4991180;28;20258;-83
2023/09/02 07:03:55;;;;;;;2.72;1.90;;;;;;;19.69;75.60;95911.41;4983927;28;20190;-83
2023/09/02 07:06:21;;;;;;;2.30;1.73;;;;;;;19.86;75.82;95915.34;4982192;28;20184;-85
2023/09/02 07:08:46;;;;;;;2.40;2.05;;;;;;;20.05;73.82;95916.41;4985625;28;20245;-84
2023/09/02 07:11:13;;;;;;;3.42;2.08;;;;;;;20.07;73.43;95912.59;4987833;28;20184;-84
2023/09/02 07:13:38;;;;;;;2.83;2.03;;;;;;;20.19;73.36;95926.00;4977965;28;20264;-84
2023/09/02 07:16:05;;;;;;;2.00;1.67;;;;;;;20.19;73.30;95930.47;4977083;28;20200;-82
2023/09/02 07:18:30;;;;;;;2.72;1.77;;;;;;;20.26;72.65;95928.69;4981657;28;20227;-85
2023/09/02 07:20:57;;;;;;;2.63;1.60;;;;;;;20.43;72.97;95927.34;4968757;28;20963;-82
2023/09/02 07:23:23;;;;;;;2.58;1.75;;;;;;;20.37;72.63;95934.19;4983820;28;20592;-82
2023/09/02 07:25:48;;;;;;;2.50;1.77;;;;;;;20.43;71.78;95932.63;4979843;28;20180;-82
2023/09/02 07:28:13;;;;;;;3.40;1.90;;;;;;;20.77;70.90;95930.84;4985973;28;20203;-82
2023/09/02 07:30:39;;;;;;;4.53;1.98;;;;;;;21.08;70.77;95930.25;4975583;28;20192;-83
2023/09/02 07:33:07;;;;;;;3.47;1.90;;;;;;;20.97;70.35;95934.31;4977638;28;20191;-81
2023/09/02 07:35:36;;;;;;;2.13;1.80;;;;;;;21.09;69.93;95929.22;4979967;28;20242;-82
2023/09/02 07:38:04;;;;;;;2.13;1.90;;;;;;;21.14;69.02;95930.25;4986406;28;20191;-81
2023/09/02 07:40:29;;;;;;;4.43;2.08;;;;;;;21.38;68.56;95935.91;4988065;28;20242;-85
2023/09/02 07:42:55;;;;;;;3.45;1.70;;;;;;;21.37;68.38;95937.75;4970785;28;20196;-83
2023/09/02 07:45:20;;;;;;;1.65;1.27;;;;;;;21.49;68.02;95936.13;4968455;28;20199;-83
2023/09/02 07:47:45;;;;;;;2.42;1.90;;;;;;;21.73;67.74;95933.81;4981110;28;20541;-83
2023/09/02 07:50:11;;;;;;;2.63;1.63;;;;;;;21.67;67.50;95946.06;4979129;28;20804;-83
2023/09/02 07:52:36;;;;;;;2.85;1.83;;;;;;;21.95;66.05;95947.59;4983813;28;20204;-82
2023/09/02 07:55:03;;;;;;;3.05;1.63;;;;;;;22.02;66.24;95945.75;4984182;28;20219;-81
2023/09/02 07:57:28;;;;;;;1.73;1.23;;;;;;;22.30;64.78;95950.75;4985558;28;20617;-83
2023/09/02 07:59:53;;;;;;;3.63;1.77;;;;;;;22.46;64.01;95941.50;4972656;28;20215;-83
2023/09/02 08:02:19;;;;;;;3.13;1.80;;;;;;;22.40;64.10;95948.44;4989501;28;20596;-83
2023/09/02 08:04:44;;;;;;;2.35;1.80;;;;;;;22.64;64.49;95949.53;4987759;28;20680;-83
2023/09/02 08:07:09;;;;;;;3.15;1.70;;;;;;;22.48;63.30;95947.41;4984317;28;20197;-81
2023/09/02 08:09:35;;;;;;;2.33;1.70;;;;;;;22.63;63.63;95965.66;4977114;28;20191;-82
2023/09/02 08:12:00;;;;;;;2.10;1.73;;;;;;;22.52;63.45;95951.22;4987739;28;20576;-82
2023/09/02 08:14:25;;;;;;;2.88;1.88;;;;;;;22.50;63.12;95951.44;4986272;28;20262;-82
2023/09/02 08:16:51;;;;;;;2.45;1.80;;;;;;;22.80;62.24;95956.97;4968752;28;20192;-82
2023/09/02 08:19:16;;;;;;;2.50;1.63;;;;;;;22.91;62.47;95952.06;4987250;28;20261;-82
2023/09/02 08:21:41;;;;;;;3.25;1.90;;;;;;;22.58;62.25;95953.03;4990586;28;20184;-82
2023/09/02 08:24:07;;;;;;;2.70;1.48;;;;;;;22.71;62.65;95955.63;4989488;28;20258;-81
2023/09/02 08:26:32;;;;;;;4.78;1.90;;;;;;;22.97;62.31;95956.47;4969178;28;20180;-80
2023/09/02 08:28:57;;;;;;;2.50;1.73;;;;;;;22.98;62.87;95952.81;4973842;28;20199;-81
2023/09/02 08:31:22;;;;;;;2.30;1.52;;;;;;;22.76;61.82;95954.97;4976075;28;20188;-80
2023/09/02 08:34:17;;;;;;;3.72;1.83;;;;;;;22.87;61.44;95957.75;4984529;28;20188;-84
2023/09/02 08:36:42;;;;;;;8.75;1.67;;;;;;;22.76;61.49;95958.41;4988564;28;20740;-82
2023/09/02 08:39:07;;;;;;;2.28;1.52;;;;;;;23.11;60.47;95965.94;4985639;28;20223;-83
2023/09/02 08:41:35;;;;;;;2.03;1.60;;;;;;;23.14;61.00;95963.66;4986301;28;20588;-83
2023/09/02 08:44:02;;;;;;;1.90;1.60;;;;;;;23.16;61.02;95964.28;4997023;28;20682;-81
2023/09/02 08:46:31;;;;;;;3.28;1.75;;;;;;;23.39;61.22;95961.00;4990809;28;20188;-81
2023/09/02 08:48:57;;;;;;;3.20;1.90;;;;;;;23.51;59.80;95963.78;4974107;28;20209;-81
2023/09/02 08:51:24;;;;;;;2.75;1.95;;;;;;;23.67;59.24;95973.03;4975216;28;20192;-82
2023/09/02 08:53:50;;;;;;;2.75;1.67;;;;;;;23.70;57.31;95977.91;4986641;28;20229;-81
2023/09/02 08:56:15;;;;;;;2.10;1.90;;;;;;;23.79;58.11;95976.59;4967900;28;20307;-81
2023/09/02 08:58:41;;;;;;;3.15;1.48;;;;;;;23.90;58.59;95977.69;4981171;28;20773;-82
2023/09/02 09:01:07;;;;;;;2.70;1.83;;;;;;;23.95;57.55;95976.00;4973896;28;20184;-82
2023/09/02 09:03:33;;;;;;;5.78;2.58;;;;;;;24.01;58.12;95977.75;4976289;28;20246;-82
2023/09/02 09:06:00;;;;;;;2.38;2.17;;;;;;;24.18;57.25;95977.97;4974134;28;20212;-79
2023/09/02 09:08:28;;;;;;;12.52;6.05;;;;;;;24.27;55.90;95986.44;4991910;28;20220;-79
2023/09/02 09:10:53;;;;;;;11.20;5.05;;;;;;;24.28;57.64;95986.22;4977933;28;20189;-79
2023/09/02 09:13:19;;;;;;;4.68;2.03;;;;;;;24.02;56.32;95992.66;4978684;28;20231;-82
2023/09/02 09:15:45;;;;;;;3.47;1.55;;;;;;;24.15;56.79;95991.69;4980805;28;20216;-82
2023/09/02 09:18:11;;;;;;;2.05;1.50;;;;;;;24.17;56.61;95994.94;4982719;28;20219;-82
2023/09/02 09:20:37;;;;;;;2.22;1.60;;;;;;;24.24;54.81;96008.13;4967216;28;20616;-83
2023/09/02 09:23:18;;;;;;;1.85;1.65;;;;;;;24.24;55.00;96005.47;4983229;28;20224;-85
2023/09/02 09:25:49;;;;;;;1.77;1.67;;;;;;;24.37;56.09;96001.88;4990915;28;20299;-81
2023/09/02 09:28:14;;;;;;;3.15;1.73;;;;;;;24.50;54.66;95994.56;4989954;28;20215;-82
2023/09/02 09:30:39;;;;;;;2.28;1.88;;;;;;;24.31;53.83;96003.56;4986093;28;20242;-80
2023/09/02 09:33:05;;;;;;;2.42;1.60;;;;;;;24.59;54.92;96003.03;4978724;28;20730;-81
2023/09/02 09:35:34;;;;;;;1.95;1.65;;;;;;;24.57;55.40;95992.66;4979930;28;20204;-81
2023/09/02 09:38:00;;;;;;;2.10;1.90;;;;;;;24.58;56.30;96002.22;4994802;28;20190;-81
2023/09/02 09:40:38;;;;;;;3.50;1.98;;;;;;;24.30;57.82;96001.94;4987584;28;20216;-80
2023/09/02 09:43:16;;;;;;;2.30;1.80;;;;;;;24.54;58.22;95995.75;4974485;28;20191;-81
2023/09/02 09:45:51;;;;;;;4.22;2.08;;;;;;;24.67;57.40;95999.28;4972433;28;20268;-80
2023/09/02 09:48:17;;;;;;;4.55;1.92;;;;;;;24.72;58.15;96002.84;4977487;28;20180;-81
2023/09/02 09:50:42;;;;;;;2.10;1.90;;;;;;;23.92;58.30;96002.16;4976813;28;20246;-80
2023/09/02 09:53:09;;;;;;;3.80;2.25;;;;;;;23.61;58.77;96001.22;4979062;28;20193;-81
2023/09/02 09:55:36;;;;;;;4.13;2.10;;;;;;;24.00;57.86;95997.38;4965918;28;20220;-80
2023/09/02 09:58:01;;;;;;;1.50;1.40;;;;;;;24.02;57.61;96008.56;4967586;28;20199;-80
2023/09/02 10:00:28;;;;;;;2.13;1.50;;;;;;;24.13;58.50;96003.56;5002695;28;20258;-80
2023/09/02 10:02:54;;;;;;;2.13;1.70;;;;;;;24.20;58.17;96005.09;4990650;28;20558;-80
2023/09/02 10:05:27;;;;;;;2.53;1.85;;;;;;;24.20;55.34;96009.59;4990800;28;20250;-80
2023/09/02 10:08:07;;;;;;;3.17;1.85;;;;;;;24.46;56.35;96006.66;4972348;28;20646;-80
2023/09/02 10:10:32;;;;;;;2.22;1.90;;;;;;;24.37;58.01;96008.00;4988216;28;20236;-81
2023/09/02 10:12:58;;;;;;;2.28;1.80;;;;;;;24.45;57.12;96006.88;4989281;28;20191;-81
2023/09/02 10:15:27;;;;;;;2.33;1.80;;;;;;;24.21;55.80;96012.06;4966058;28;20678;-80
2023/09/02 10:17:57;;;;;;;3.47;1.92;;;;;;;24.14;55.99;96010.50;4967754;28;20685;-80
2023/09/02 10:20:26;;;;;;;2.55;1.98;;;;;;;24.38;54.95;96006.97;4987738;28;20215;-86
2023/09/02 10:22:57;;;;;;;1.98;1.65;;;;;;;24.08;54.64;96014.84;4985502;28;20252;-86
2023/09/02 10:25:27;;;;;;;2.10;1.90;;;;;;;24.62;55.58;96015.06;4989759;28;20183;-86
2023/09/02 10:28:11;;;;;;;2.58;1.98;;;;;;;24.92;54.67;96018.53;4971031;28;20188;-85
2023/09/02 10:30:42;;;;;;;2.35;2.13;;;;;;;24.67;54.26;96007.22;4974238;28;20183;-86
2023/09/02 10:33:39;;;;;;;3.25;1.73;;;;;;;24.65;53.19;96010.13;5008063;28;20191;-84
2023/09/02 10:36:06;;;;;;;2.85;1.77;;;;;;;24.61;54.08;96008.13;4993253;28;20212;-86
2023/09/02 10:38:37;;;;;;;2.22;1.50;;;;;;;24.72;51.68;96013.47;4968561;28;20216;-86
2023/09/02 10:41:15;;;;;;;3.28;2.17;;;;;;;24.60;53.38;96009.97;4990900;28;20257;-85
2023/09/02 10:43:41;;;;;;;3.78;2.20;;;;;;;24.64;54.13;96011.13;4990919;28;20191;-85
2023/09/02 10:46:10;;;;;;;5.55;2.70;;;;;;;24.47;55.76;96010.97;4971038;28;20624;-85
2023/09/02 10:48:44;;;;;;;3.33;2.13;;;;;;;24.23;54.68;96003.88;4980949;28;20286;-83
2023/09/02 10:51:10;;;;;;;2.55;1.88;;;;;;;24.15;55.62;96015.59;4972665;28;20696;-79
2023/09/02 10:53:48;;;;;;;4.38;2.13;;;;;;;24.71;54.65;96008.41;4993004;28;20218;-79
2023/09/02 10:56:25;;;;;;;3.50;1.92;;;;;;;24.60;55.60;96015.28;4990577;28;20748;-79
2023/09/02 10:58:50;;;;;;;3.17;2.15;;;;;;;24.80;54.86;96007.03;4974155;28;20207;-80
2023/09/02 11:01:15;;;;;;;4.60;1.70;;;;;;;24.84;53.76;96005.56;4978691;28;20258;-79
2023/09/02 11:03:43;;;;;;;3.00;2.40;;;;;;;25.08;54.41;96003.81;5000081;28;20191;-79
2023/09/02 11:06:11;;;;;;;2.05;1.85;;;;;;;24.90;52.45;96003.84;4981832;28;20271;-80
2023/09/02 11:08:55;;;;;;;2.33;2.10;;;;;;;25.29;53.62;95994.50;4986061;28;20617;-80
2023/09/02 11:11:20;;;;;;;5.20;2.85;;;;;;;24.92;53.57;96004.44;4990562;28;20188;-80
2023/09/02 11:14:06;;;;;;;4.63;3.92;;;;;;;24.99;54.28;96003.28;5005337;28;20589;-80
2023/09/02 11:16:32;;;;;;;11.32;10.15;;;;;;;25.12;53.41;96003.13;4985833;28;20219;-81
2023/09/02 11:18:58;;;;;;;3.72;3.38;;;;;;;25.09;51.93;96006.25;4982033;28;20207;-80
2023/09/02 11:21:41;;;;;;;3.22;2.20;;;;;;;25.19;52.40;95996.91;4981749;28;20202;-80
2023/09/02 11:24:17;;;;;;;7.75;5.18;;;;;;;25.61;51.60;95993.13;4982591;28;20187;-80
2023/09/02 11:26:59;;;;;;;2.67;2.03;;;;;;;25.29;53.98;95991.84;4994711;28;20660;-84
2023/09/02 11:29:26;;;;;;;3.35;2.15;;;;;;;24.78;55.62;95995.84;4994428;28;20208;-84
2023/09/02 11:31:56;;;;;;;3.20;2.90;;;;;;;24.99;54.97;96000.63;5014345;28;20183;-84
2023/09/02 11:34:23;;;;;;;3.70;3.15;;;;;;;25.18;55.13;96004.09;4980476;28;20263;-85